createdAt,value
2018-05-17T00:01:36.299Z,9.73
2018-05-17T00:04:04.552Z,10.48
2018-05-17T00:06:32.040Z,11.80
2018-05-17T00:09:00.292Z,11.45
2018-05-17T00:11:28.547Z,10.93
2018-05-17T00:13:56.037Z,11.88
2018-05-17T00:16:24.263Z,10.70
2018-05-17T00:18:51.735Z,6.85
2018-05-17T00:21:19.236Z,11.55
2018-05-17T00:23:47.456Z,6.83
2018-05-17T00:26:14.940Z,8.75
2018-05-17T00:28:42.420Z,8.43
2018-05-17T00:31:10.652Z,13.75
2018-05-17T00:33:38.128Z,15.15
2018-05-17T00:36:05.580Z,8.38
2018-05-17T00:38:33.041Z,8.60
2018-05-17T00:41:00.497Z,10.88
2018-05-17T00:43:27.983Z,11.02
2018-05-17T00:45:56.224Z,9.68
2018-05-17T00:48:23.688Z,9.10
2018-05-17T00:50:51.164Z,9.40
2018-05-17T00:53:33.592Z,8.40
2018-05-17T00:56:01.047Z,6.32
2018-05-17T00:58:29.275Z,10.45
2018-05-17T01:00:56.737Z,10.07
2018-05-17T01:03:24.264Z,12.20
2018-05-17T01:05:51.738Z,8.35
2018-05-17T01:08:19.203Z,13.25
2018-05-17T01:10:46.685Z,8.70
2018-05-17T01:13:14.154Z,10.43
2018-05-17T01:15:41.628Z,8.70
2018-05-17T01:18:09.839Z,11.52
2018-05-17T01:20:37.315Z,12.70
2018-05-17T01:23:04.796Z,13.05
2018-05-17T01:25:32.269Z,12.70
2018-05-17T01:27:59.749Z,10.48
2018-05-17T01:30:27.976Z,12.35
2018-05-17T01:32:55.448Z,7.90
2018-05-17T01:35:22.916Z,14.77
2018-05-17T01:38:02.979Z,10.02
2018-05-17T01:40:31.223Z,11.60
2018-05-17T01:42:58.695Z,11.75
2018-05-17T01:45:26.173Z,12.88
2018-05-17T01:47:54.422Z,8.02
2018-05-17T01:50:21.907Z,11.05
2018-05-17T01:52:49.374Z,9.00
2018-05-17T01:55:17.616Z,8.65
2018-05-17T01:57:45.081Z,10.35
2018-05-17T02:00:12.581Z,10.82
2018-05-17T02:02:40.053Z,9.45
2018-05-17T02:05:07.532Z,8.68
2018-05-17T02:07:35.003Z,9.45
2018-05-17T02:10:02.484Z,12.15
2018-05-17T02:12:30.701Z,14.05
2018-05-17T02:14:58.185Z,9.60
2018-05-17T02:17:25.652Z,13.80
2018-05-17T02:19:53.119Z,7.72
2018-05-17T02:22:20.621Z,13.98
2018-05-17T02:24:48.065Z,9.57
2018-05-17T02:27:15.549Z,9.15
2018-05-17T02:29:43.036Z,15.50
2018-05-17T02:32:10.529Z,12.90
2018-05-17T02:34:38.775Z,10.45
2018-05-17T02:37:06.256Z,11.07
2018-05-17T02:39:34.475Z,15.95
2018-05-17T02:42:01.936Z,13.25
2018-05-17T02:44:29.391Z,10.93
2018-05-17T02:46:56.880Z,11.30
2018-05-17T02:49:24.342Z,11.88
2018-05-17T02:51:51.815Z,12.10
2018-05-17T02:54:19.295Z,11.18
2018-05-17T02:56:47.528Z,14.50
2018-05-17T02:59:14.989Z,11.82
2018-05-17T03:01:42.476Z,12.30
2018-05-17T03:04:10.707Z,12.43
2018-05-17T03:06:38.179Z,15.85
2018-05-17T03:09:05.633Z,12.25
2018-05-17T03:11:33.125Z,12.18
2018-05-17T03:14:01.368Z,10.05
2018-05-17T03:16:28.820Z,10.15
2018-05-17T03:18:56.293Z,12.07
2018-05-17T03:21:23.763Z,16.33
2018-05-17T03:23:51.235Z,10.50
2018-05-17T03:26:19.464Z,12.93
2018-05-17T03:28:46.940Z,12.77
2018-05-17T03:31:14.396Z,11.25
2018-05-17T03:33:41.858Z,16.33
2018-05-17T03:36:09.307Z,11.02
2018-05-17T03:38:36.760Z,15.60
2018-05-17T03:41:04.244Z,9.57
2018-05-17T03:43:31.723Z,11.02
2018-05-17T03:45:59.960Z,12.43
2018-05-17T03:48:27.424Z,17.35
2018-05-17T03:50:54.877Z,15.73
2018-05-17T03:53:22.365Z,11.77
2018-05-17T03:55:50.583Z,14.80
2018-05-17T03:58:18.040Z,17.17
2018-05-17T04:00:57.389Z,14.55
2018-05-17T04:03:36.708Z,12.25
2018-05-17T04:06:16.969Z,16.48
2018-05-17T04:08:44.444Z,14.80
2018-05-17T04:11:11.896Z,12.20
2018-05-17T04:13:39.372Z,12.88
2018-05-17T04:16:06.854Z,12.82
2018-05-17T04:18:35.100Z,14.13
2018-05-17T04:21:02.557Z,18.15
2018-05-17T04:23:30.049Z,14.60
2018-05-17T04:25:58.324Z,15.85
2018-05-17T04:28:26.562Z,16.90
2018-05-17T04:30:54.038Z,16.58
2018-05-17T04:33:21.515Z,14.98
2018-05-17T04:35:49.756Z,11.45
2018-05-17T04:38:17.236Z,12.15
2018-05-17T04:40:44.683Z,14.63
2018-05-17T04:43:12.179Z,13.27
2018-05-17T04:45:39.649Z,11.90
2018-05-17T04:48:07.128Z,13.93
2018-05-17T04:50:34.595Z,14.27
2018-05-17T04:53:02.088Z,18.33
2018-05-17T04:55:30.324Z,14.73
2018-05-17T04:57:58.540Z,15.43
2018-05-17T05:00:26.783Z,14.35
2018-05-17T05:02:55.113Z,17.45
2018-05-17T05:05:22.544Z,14.23
2018-05-17T05:07:50.016Z,15.20
2018-05-17T05:10:18.270Z,12.18
2018-05-17T05:12:45.735Z,11.80
2018-05-17T05:15:13.987Z,14.45
2018-05-17T05:17:41.479Z,13.43
2018-05-17T05:20:09.718Z,15.07
2018-05-17T05:22:37.179Z,12.75
2018-05-17T05:25:04.706Z,15.98
2018-05-17T05:27:32.201Z,13.30
2018-05-17T05:29:59.658Z,19.23
2018-05-17T05:32:27.123Z,13.62
2018-05-17T05:34:54.599Z,17.42
2018-05-17T05:37:22.850Z,15.85
2018-05-17T05:39:50.302Z,14.13
2018-05-17T05:42:17.748Z,16.90
2018-05-17T05:44:45.224Z,13.88
2018-05-17T05:47:12.684Z,15.70
2018-05-17T05:49:40.164Z,16.20
2018-05-17T05:52:07.652Z,20.52
2018-05-17T05:54:35.124Z,12.80
2018-05-17T05:57:02.605Z,19.83
2018-05-17T05:59:30.676Z,18.27
2018-05-17T06:01:58.132Z,14.13
2018-05-17T06:04:25.637Z,12.52
2018-05-17T06:06:53.076Z,17.05
2018-05-17T06:09:20.561Z,13.93
2018-05-17T06:11:48.040Z,14.40
2018-05-17T06:14:16.277Z,13.27
2018-05-17T06:16:43.748Z,17.12
2018-05-17T06:19:11.224Z,17.40
2018-05-17T06:21:38.680Z,13.62
2018-05-17T06:24:06.922Z,15.02
2018-05-17T06:26:34.380Z,16.62
2018-05-17T06:29:01.845Z,14.10
2018-05-17T06:31:29.326Z,16.30
2018-05-17T06:33:56.769Z,15.18
2018-05-17T06:36:24.260Z,17.70
2018-05-17T06:38:52.503Z,16.33
2018-05-17T06:41:19.982Z,18.23
2018-05-17T06:43:47.478Z,16.80
2018-05-17T06:46:14.919Z,17.35
2018-05-17T06:48:43.164Z,14.77
2018-05-17T06:51:10.613Z,15.70
2018-05-17T06:53:38.080Z,11.73
2018-05-17T06:56:05.567Z,17.00
2018-05-17T06:58:33.036Z,17.35
2018-05-17T07:01:00.534Z,12.27
2018-05-17T07:03:28.032Z,11.57
2018-05-17T07:05:55.482Z,14.35
2018-05-17T07:08:23.740Z,12.55
2018-05-17T07:10:51.223Z,11.65
2018-05-17T07:13:18.724Z,10.02
2018-05-17T07:15:46.201Z,11.40
2018-05-17T07:18:13.804Z,10.63
2018-05-17T07:20:41.941Z,12.65
2018-05-17T07:23:09.418Z,14.00
2018-05-17T07:25:36.899Z,10.90
2018-05-17T07:28:05.166Z,15.38
2018-05-17T07:30:32.617Z,12.00
2018-05-17T07:33:00.852Z,11.80
2018-05-17T07:35:28.320Z,13.88
2018-05-17T07:37:55.784Z,13.43
2018-05-17T07:40:23.289Z,11.80
2018-05-17T07:42:50.755Z,12.18
2018-05-17T07:45:18.236Z,11.98
2018-05-17T07:47:45.699Z,12.77
2018-05-17T07:50:13.192Z,9.75
2018-05-17T07:52:40.647Z,14.57
2018-05-17T07:55:08.119Z,15.50
2018-05-17T07:57:36.344Z,16.23
2018-05-17T08:00:03.813Z,16.13
2018-05-17T08:02:32.037Z,12.50
2018-05-17T08:05:00.276Z,12.73
2018-05-17T08:07:27.759Z,15.17
2018-05-17T08:09:55.217Z,14.30
2018-05-17T08:12:23.465Z,16.03
2018-05-17T08:14:50.940Z,15.57
2018-05-17T08:17:18.423Z,23.20
2018-05-17T08:19:46.655Z,23.07
2018-05-17T08:22:14.121Z,22.77
2018-05-17T08:24:41.607Z,22.93
2018-05-17T08:27:09.860Z,22.20
2018-05-17T08:29:37.360Z,23.03
2018-05-17T08:32:04.844Z,19.43
2018-05-17T08:34:32.355Z,21.67
2018-05-17T08:36:59.831Z,22.27
2018-05-17T08:39:27.306Z,22.20
2018-05-17T08:41:54.795Z,23.70
2018-05-17T08:44:22.269Z,21.13
2018-05-17T08:46:49.746Z,19.77
2018-05-17T08:49:17.961Z,20.93
2018-05-17T08:51:45.440Z,21.93
2018-05-17T08:54:12.928Z,21.07
2018-05-17T08:56:41.164Z,22.53
2018-05-17T08:59:08.718Z,19.93
2018-05-17T09:01:36.103Z,21.37
2018-05-17T09:04:03.594Z,20.80
2018-05-17T09:06:31.055Z,17.27
2018-05-17T09:08:58.535Z,23.73
2018-05-17T09:11:26.016Z,22.47
2018-05-17T09:13:53.575Z,17.97
2018-05-17T09:16:21.740Z,18.93
2018-05-17T09:18:49.232Z,23.47
2018-05-17T09:21:16.720Z,15.83
2018-05-17T09:23:44.208Z,22.90
2018-05-17T09:26:11.692Z,20.07
2018-05-17T09:28:39.176Z,17.97
2018-05-17T09:31:07.411Z,22.13
2018-05-17T09:33:34.897Z,16.57
2018-05-17T09:36:02.383Z,19.67
2018-05-17T09:38:29.875Z,16.20
2018-05-17T09:40:57.384Z,17.00
2018-05-17T09:43:25.612Z,17.00
2018-05-17T09:45:53.099Z,17.73
2018-05-17T09:48:20.605Z,15.57
2018-05-17T09:50:48.827Z,15.90
2018-05-17T09:53:16.312Z,15.93
2018-05-17T09:55:44.556Z,13.00
2018-05-17T09:58:12.048Z,15.33
2018-05-17T10:00:49.996Z,17.63
2018-05-17T10:03:17.458Z,17.97
2018-05-17T10:05:44.951Z,17.70
2018-05-17T10:08:12.429Z,16.97
2018-05-17T10:10:41.745Z,16.10
2018-05-17T10:13:09.136Z,13.97
2018-05-17T10:15:36.656Z,14.40
2018-05-17T10:18:04.170Z,17.90
2018-05-17T10:20:31.637Z,14.00
2018-05-17T10:22:59.109Z,14.33
2018-05-17T10:25:28.312Z,16.03
2018-05-17T10:27:56.536Z,16.97
2018-05-17T10:30:24.021Z,16.07
2018-05-17T10:32:51.476Z,17.10
2018-05-17T10:35:18.961Z,16.53
2018-05-17T10:37:47.180Z,17.30
2018-05-17T10:40:15.335Z,17.80
2018-05-17T10:42:43.716Z,14.97
2018-05-17T10:45:11.966Z,15.57
2018-05-17T10:47:40.197Z,16.63
2018-05-17T10:50:07.685Z,12.90
2018-05-17T10:52:35.903Z,14.90
2018-05-17T10:55:03.408Z,11.77
2018-05-17T10:57:30.883Z,14.53
2018-05-17T10:59:59.121Z,16.63
2018-05-17T11:02:26.673Z,15.90
2018-05-17T11:04:54.160Z,16.20
2018-05-17T11:07:21.632Z,18.87
2018-05-17T11:09:49.847Z,17.40
2018-05-17T11:12:17.391Z,14.40
2018-05-17T11:14:44.953Z,13.93
2018-05-17T11:17:12.432Z,23.27
2018-05-17T11:19:39.959Z,15.80
2018-05-17T11:22:07.440Z,14.80
2018-05-17T11:24:34.956Z,14.67
2018-05-17T11:27:03.194Z,11.00
2018-05-17T11:29:30.993Z,12.60
2018-05-17T11:34:33.345Z,11.43
2018-05-17T11:37:00.803Z,13.77
2018-05-17T11:39:28.264Z,10.00
2018-05-17T11:41:55.739Z,10.27
2018-05-17T11:44:23.205Z,12.10
2018-05-17T11:46:50.662Z,12.23
2018-05-17T11:49:18.224Z,12.97
2018-05-17T11:51:45.695Z,14.20
2018-05-17T11:54:13.912Z,12.77
2018-05-17T11:56:41.384Z,11.33
2018-05-17T11:59:08.889Z,13.37
2018-05-17T12:01:37.202Z,12.63
2018-05-17T12:04:05.418Z,13.93
2018-05-17T12:06:32.867Z,11.60
2018-05-17T12:09:00.357Z,8.90
2018-05-17T12:11:28.584Z,10.77
2018-05-17T12:13:56.067Z,10.63
2018-05-17T12:16:25.279Z,11.30
2018-05-17T12:18:53.522Z,10.13
2018-05-17T12:21:20.989Z,10.23
2018-05-17T12:23:48.442Z,11.37
2018-05-17T12:26:15.890Z,8.63
2018-05-17T12:28:43.356Z,8.43
2018-05-17T12:31:10.848Z,9.97
2018-05-17T12:33:38.333Z,12.13
2018-05-17T12:36:05.796Z,12.73
2018-05-17T12:38:33.268Z,13.27
2018-05-17T12:41:00.736Z,16.43
2018-05-17T12:43:28.196Z,9.73
2018-05-17T12:45:55.679Z,12.60
2018-05-17T12:48:23.164Z,12.77
2018-05-17T12:50:50.708Z,10.60
2018-05-17T12:53:18.137Z,15.47
2018-05-17T12:55:45.612Z,11.20
2018-05-17T12:58:13.859Z,13.50
2018-05-17T13:00:41.316Z,13.93
2018-05-17T13:03:08.784Z,9.43
2018-05-17T13:05:36.277Z,8.27
2018-05-17T13:08:04.525Z,9.43
2018-05-17T13:10:32.008Z,11.87
2018-05-17T13:12:59.561Z,14.13
2018-05-17T13:15:26.957Z,9.50
2018-05-17T13:17:54.419Z,9.93
2018-05-17T13:20:21.894Z,8.93
2018-05-17T13:22:49.359Z,12.27
2018-05-17T13:25:17.764Z,13.30
2018-05-17T13:27:45.246Z,10.87
2018-05-17T13:30:12.748Z,7.87
2018-05-17T13:32:40.192Z,10.80
2018-05-17T13:35:07.672Z,11.37
2018-05-17T13:37:35.234Z,14.83
2018-05-17T13:40:02.628Z,11.73
2018-05-17T13:42:30.883Z,11.90
2018-05-17T13:44:58.363Z,12.93
2018-05-17T13:47:25.812Z,10.47
2018-05-17T13:49:53.291Z,10.53
2018-05-17T13:52:20.759Z,12.80
2018-05-17T13:54:48.246Z,8.50
2018-05-17T13:57:15.716Z,11.53
2018-05-17T13:59:43.184Z,10.93
2018-05-17T14:02:10.645Z,11.97
2018-05-17T14:04:38.876Z,9.97
2018-05-17T14:07:06.357Z,12.93
2018-05-17T14:09:33.833Z,16.30
2018-05-17T14:12:02.057Z,11.97
2018-05-17T14:14:29.541Z,10.63
2018-05-17T14:16:57.029Z,11.67
2018-05-17T14:19:25.256Z,8.40
2018-05-17T14:21:52.716Z,9.07
2018-05-17T14:24:20.195Z,19.60
2018-05-17T14:26:47.677Z,10.20
2018-05-17T14:29:16.062Z,8.93
2018-05-17T14:31:43.624Z,7.97
2018-05-17T14:34:11.039Z,8.33
2018-05-17T14:36:38.519Z,10.93
2018-05-17T14:39:05.993Z,8.97
2018-05-17T14:41:34.239Z,8.87
2018-05-17T14:44:01.724Z,9.03
2018-05-17T14:46:29.993Z,8.67
2018-05-17T14:48:57.448Z,8.57
2018-05-17T14:51:25.668Z,11.33
2018-05-17T14:53:53.135Z,10.33
2018-05-17T14:56:20.611Z,12.67
2018-05-17T14:58:48.091Z,14.70
2018-05-17T15:01:15.596Z,8.77
2018-05-17T15:03:43.034Z,13.23
2018-05-17T15:06:10.528Z,10.37
2018-05-17T15:08:38.028Z,10.77
2018-05-17T15:11:05.449Z,15.03
2018-05-17T15:13:32.933Z,9.53
2018-05-17T15:16:00.412Z,10.37
2018-05-17T15:18:28.635Z,10.63
2018-05-17T15:20:56.092Z,9.03
2018-05-17T15:23:23.545Z,12.77
2018-05-17T15:25:51.041Z,11.67
2018-05-17T15:28:18.525Z,8.50
2018-05-17T15:30:47.789Z,12.83
2018-05-17T15:33:15.260Z,10.30
2018-05-17T15:35:42.736Z,9.50
2018-05-17T15:38:10.209Z,10.30
2018-05-17T15:40:37.697Z,12.43
2018-05-17T15:43:05.147Z,8.40
2018-05-17T15:45:32.648Z,9.33
2018-05-17T15:48:00.095Z,6.90
2018-05-17T15:50:27.588Z,8.30
2018-05-17T15:52:55.036Z,7.83
2018-05-17T15:55:22.605Z,11.13
2018-05-17T15:57:50.068Z,10.17
2018-05-17T16:00:18.323Z,11.43
2018-05-17T16:02:45.820Z,10.63
2018-05-17T16:05:14.388Z,11.07
2018-05-17T16:07:41.935Z,10.37
2018-05-17T16:10:09.419Z,10.60
2018-05-17T16:12:37.656Z,7.23
2018-05-17T16:15:05.227Z,6.97
2018-05-17T16:17:32.592Z,8.70
2018-05-17T16:20:00.080Z,7.27
2018-05-17T16:22:27.565Z,9.97
2018-05-17T16:24:55.084Z,10.20
2018-05-17T16:27:23.378Z,9.97
2018-05-17T16:29:50.827Z,8.80
2018-05-17T16:32:18.296Z,10.93
2018-05-17T16:34:45.748Z,8.77
2018-05-17T16:37:13.209Z,7.17
2018-05-17T16:39:40.670Z,8.50
2018-05-17T16:42:08.152Z,8.63
2018-05-17T16:44:35.681Z,8.67
2018-05-17T16:47:03.128Z,11.67
2018-05-17T16:49:30.624Z,10.43
2018-05-17T16:51:58.104Z,11.87
2018-05-17T16:54:25.654Z,7.07
2018-05-17T16:56:53.867Z,12.20
2018-05-17T16:59:22.279Z,10.37
2018-05-17T17:01:49.764Z,12.40
2018-05-17T17:04:17.216Z,11.13
2018-05-17T17:06:44.700Z,12.90
2018-05-17T17:09:12.140Z,11.77
2018-05-17T17:11:39.595Z,10.90
2018-05-17T17:14:07.078Z,12.70
2018-05-17T17:16:34.566Z,10.77
2018-05-17T17:19:02.038Z,10.77
2018-05-17T17:21:29.504Z,11.77
2018-05-17T17:23:57.023Z,10.77
2018-05-17T17:26:24.420Z,10.00
2018-05-17T17:28:51.877Z,10.63
2018-05-17T17:31:19.413Z,9.80
2018-05-17T17:33:46.888Z,13.50
2018-05-17T17:36:14.451Z,8.07
2018-05-17T17:38:42.647Z,11.50
2018-05-17T17:41:10.134Z,9.67
2018-05-17T17:43:37.624Z,9.90
2018-05-17T17:46:05.095Z,7.23
2018-05-17T17:48:32.581Z,7.70
2018-05-17T17:51:00.028Z,7.67
2018-05-17T17:53:27.490Z,9.23
2018-05-17T17:55:54.980Z,11.20
2018-05-17T17:58:23.240Z,7.03
2018-05-17T18:00:50.750Z,5.90
2018-05-17T18:03:18.216Z,6.17
2018-05-17T18:05:45.686Z,9.00
2018-05-17T18:08:13.147Z,8.67
2018-05-17T18:10:40.608Z,8.17
2018-05-17T18:13:08.060Z,6.97
2018-05-17T18:15:35.525Z,9.60
2018-05-17T18:18:03.862Z,9.90
2018-05-17T18:20:31.344Z,7.33
2018-05-17T18:22:58.797Z,11.13
2018-05-17T18:25:26.262Z,9.10
2018-05-17T18:27:53.744Z,9.47
2018-05-17T18:30:21.228Z,10.50
2018-05-17T18:32:49.481Z,11.17
2018-05-17T18:35:16.940Z,7.03
2018-05-17T18:37:44.432Z,12.93
2018-05-17T18:40:12.675Z,9.70
2018-05-17T18:42:40.189Z,12.10
2018-05-17T18:45:07.660Z,10.23
2018-05-17T18:47:35.187Z,12.07
2018-05-17T18:50:02.659Z,13.00
2018-05-17T18:52:30.128Z,13.77
2018-05-17T18:54:57.576Z,7.53
2018-05-17T18:57:25.036Z,19.30
2018-05-17T18:59:52.532Z,10.43
2018-05-17T19:02:20.111Z,14.80
2018-05-17T19:04:48.317Z,13.73
2018-05-17T19:07:15.820Z,14.07
2018-05-17T19:09:43.312Z,11.93
2018-05-17T19:12:11.555Z,11.87
2018-05-17T19:14:39.068Z,11.00
2018-05-17T19:17:07.320Z,12.00
2018-05-17T19:19:35.565Z,11.83
2018-05-17T19:22:03.032Z,17.77
2018-05-17T19:24:30.504Z,13.20
2018-05-17T19:26:57.989Z,11.77
2018-05-17T19:29:25.888Z,9.80
2018-05-17T19:31:53.376Z,9.27
2018-05-17T19:34:20.863Z,9.90
2018-05-17T19:36:48.345Z,12.50
2018-05-17T19:39:15.821Z,9.07
2018-05-17T19:41:43.325Z,11.83
2018-05-17T19:44:10.792Z,10.43
2018-05-17T19:46:38.259Z,10.82
2018-05-17T19:49:05.723Z,10.70
2018-05-17T19:51:33.233Z,14.57
2018-05-17T19:54:00.688Z,8.52
2018-05-17T19:56:28.171Z,10.83
2018-05-17T19:58:56.405Z,13.93
2018-05-17T20:01:23.881Z,8.50
2018-05-17T20:03:51.349Z,10.85
2018-05-17T20:06:19.603Z,10.77
2018-05-17T20:08:47.108Z,11.00
2018-05-17T20:11:14.615Z,8.52
2018-05-17T20:13:42.084Z,12.90
2018-05-17T20:16:09.589Z,14.03
2018-05-17T20:18:37.155Z,12.43
2018-05-17T20:21:04.592Z,12.52
2018-05-17T20:23:32.059Z,15.40
2018-05-17T20:25:59.540Z,12.13
2018-05-17T20:28:27.085Z,12.80
2018-05-17T20:30:54.596Z,12.00
2018-05-17T20:33:22.083Z,11.52
2018-05-17T20:35:49.579Z,11.05
2018-05-17T20:38:17.049Z,10.23
2018-05-17T20:40:44.592Z,11.23
2018-05-17T20:43:12.075Z,13.85
2018-05-17T20:45:41.758Z,11.20
2018-05-17T20:48:09.225Z,11.93
2018-05-17T20:50:36.708Z,12.65
2018-05-17T20:53:04.229Z,12.35
2018-05-17T20:55:31.658Z,12.05
2018-05-17T20:57:59.108Z,13.50
2018-05-17T21:00:26.658Z,13.50
2018-05-17T21:02:54.076Z,13.70
2018-05-17T21:05:21.544Z,12.98
2018-05-17T21:07:49.027Z,15.32
2018-05-17T21:10:17.280Z,10.63
2018-05-17T21:12:44.779Z,8.52
2018-05-17T21:15:12.263Z,10.30
2018-05-17T21:17:39.729Z,11.27
2018-05-17T21:20:07.226Z,9.10
2018-05-17T21:22:35.453Z,9.13
2018-05-17T21:25:02.948Z,11.50
2018-05-17T21:27:30.420Z,14.87
2018-05-17T21:29:58.652Z,9.55
2018-05-17T21:32:26.136Z,13.20
2018-05-17T21:34:53.617Z,8.20
2018-05-17T21:37:21.081Z,14.90
2018-05-17T21:39:49.300Z,14.80
2018-05-17T21:42:16.777Z,14.57
2018-05-17T21:44:44.260Z,10.60
2018-05-17T21:47:12.492Z,16.67
2018-05-17T21:49:39.975Z,11.75
2018-05-17T21:52:07.459Z,12.85
2018-05-17T21:54:35.692Z,12.23
2018-05-17T21:57:03.152Z,10.20
2018-05-17T21:59:31.258Z,11.02
2018-05-17T22:01:58.837Z,16.73
2018-05-17T22:04:26.320Z,9.00
2018-05-17T22:06:53.804Z,14.52
2018-05-17T22:09:21.308Z,14.60
2018-05-17T22:11:49.548Z,13.00
2018-05-17T22:14:17.032Z,10.70
2018-05-17T22:16:45.264Z,10.70
2018-05-17T22:19:12.728Z,12.32
2018-05-17T22:21:40.234Z,15.63
2018-05-17T22:24:08.479Z,11.48
2018-05-17T22:26:35.927Z,11.27
2018-05-17T22:29:03.391Z,12.55
2018-05-17T22:31:30.848Z,11.75
2018-05-17T22:33:58.316Z,10.77
2018-05-17T22:36:26.579Z,12.77
2018-05-17T22:38:54.053Z,15.40
2018-05-17T22:41:21.541Z,10.95
2018-05-17T22:43:49.000Z,12.82
2018-05-17T22:46:16.458Z,9.75
2018-05-17T22:48:43.924Z,11.43
2018-05-17T22:51:11.393Z,14.00
2018-05-17T22:53:38.852Z,13.23
2018-05-17T22:56:06.320Z,13.75
2018-05-17T22:58:33.800Z,15.00
2018-05-17T23:01:01.289Z,10.77
2018-05-17T23:03:29.559Z,12.93
2018-05-17T23:05:57.028Z,11.40
2018-05-17T23:08:24.488Z,12.35
2018-05-17T23:10:51.958Z,11.93
2018-05-17T23:13:20.153Z,15.20
2018-05-17T23:15:47.620Z,10.30
2018-05-17T23:18:15.111Z,9.32
2018-05-17T23:20:43.352Z,11.27
2018-05-17T23:23:10.809Z,13.62
2018-05-17T23:25:38.264Z,11.10
2018-05-17T23:28:05.731Z,9.73
2018-05-17T23:30:33.196Z,12.82
2018-05-17T23:33:00.682Z,10.32
2018-05-17T23:35:28.925Z,8.63
2018-05-17T23:37:56.404Z,13.40
2018-05-17T23:40:35.596Z,14.27
2018-05-17T23:43:03.073Z,10.13
2018-05-17T23:45:30.556Z,8.20
2018-05-17T23:47:58.768Z,11.00
2018-05-17T23:50:26.222Z,8.00
2018-05-17T23:52:53.688Z,13.68
2018-05-17T23:55:21.141Z,9.20
2018-05-17T23:57:48.612Z,15.55
